Главная страница
METAR-TAF:

METAR-TAF

Аэропорты :

Гонконг, Китай

широта: 22-19N, долгота: 113-55E, высота над уровнем моря: 9 м

Текущие метеонаблюдения

Эта сводка был подготовлена 27 минут назад, в 03:30 UTC
Ветер 18 Узел от восточный
Температура 21°C
Влажность 60%
Давление 1016 hPa
Видимость 10 км и более
небольшая облачность на высоте 2200 фута

METAR: VHHH 240330Z 10018KT 9999 FEW022 21/13 Q1016 NOSIG

Время: 11:57 (03:57 UTC)

Прогноз

Эта сводка был подготовлена 4 часа и 57 минут назад, в 23:00 UTC
Прогноз действительный с 24-го 00 UTC до 25-го 06 UTC
Ветер 15 Узел от восточный
Видимость: 9000 м
небольшая облачность на высоте 2500 фута
Отдельные облака на высоте 4000 фута
временами
С 24-го 12 UTC до 24-го 18 UTC
Ветер 20 Узел от восточный с порывами до 30 Узел

TAF: VHHH 232300Z 2400/2506 09015KT 9000 FEW025 SCT040 TX21/2406Z TX21/2506Z TN17/2423Z TEMPO 2412/2418 08020G30KT

Метеонаблюдения и прогнозы для более 4000 аэропортов (сводки METAR и TAF).

Имеющиеся станции представлены на карте желтыми и красными точками.

Чтобы увидеть название станции, наведите на нее мышь.

Затем щелкните, чтобы увидеть метеонаблюдения и метеопрогнозы.

Управление картой: чтобы увеличить масштаб, щелкните зеленые кнопки с черным крестиком; чтобы уменьшить масштаб, щелкните зеленую кнопку с тире; для просмотра соседних карт щелкайте зеленые стрелки.


METAR-TAF: